Time;durP1;ratioP1;P1;durP2;ratioP2;P2;SDS_P1;SDS_P2;PMS_P1;PMS_P2;Temp;Humidity;BMP_temperature;BMP_pressure;BME280_temperature;BME280_humidity;BME280_pressure;Samples;Min_cycle;Max_cycle;Signal;HPM_P1;HPM_P2
2023/06/26 00:00:11;;;;;;;9.40;4.78;;;;;;;18.35;100.00;94595.41;5072707;28;20507;-83
2023/06/26 00:02:36;;;;;;;7.32;5.03;;;;;;;18.31;100.00;94599.75;5072603;28;20361;-83
2023/06/26 00:05:04;;;;;;;6.88;4.43;;;;;;;18.21;100.00;94604.25;5072483;28;20032;-83
2023/06/26 00:07:30;;;;;;;9.68;4.95;;;;;;;18.19;100.00;94606.44;5072568;28;20118;-83
2023/06/26 00:09:59;;;;;;;13.05;5.00;;;;;;;18.30;100.00;94601.66;5072469;28;20028;-83
2023/06/26 00:12:24;;;;;;;14.18;5.32;;;;;;;18.06;100.00;94605.50;5075048;28;20028;-83
2023/06/26 00:14:50;;;;;;;11.30;4.97;;;;;;;17.92;100.00;94597.63;5076471;28;20483;-83
2023/06/26 00:17:15;;;;;;;13.18;5.50;;;;;;;17.93;100.00;94604.53;5075861;28;20038;-82
2023/06/26 00:19:40;;;;;;;7.22;4.72;;;;;;;17.95;100.00;94602.34;5076217;28;20035;-83
2023/06/26 00:22:06;;;;;;;8.05;4.65;;;;;;;18.11;100.00;94601.94;5076516;28;20445;-83
2023/06/26 00:24:31;;;;;;;12.90;5.05;;;;;;;18.01;100.00;94600.31;5076359;28;20032;-83
2023/06/26 00:26:57;;;;;;;5.88;4.63;;;;;;;18.16;100.00;94595.72;5075786;28;20040;-83
2023/06/26 00:29:23;;;;;;;7.10;5.22;;;;;;;18.22;100.00;94594.44;5076092;28;20025;-83
2023/06/26 00:31:48;;;;;;;8.35;4.82;;;;;;;17.99;100.00;94588.47;5059714;28;20095;-82
2023/06/26 00:34:14;;;;;;;7.70;4.70;;;;;;;18.06;100.00;94600.19;5076121;28;20037;-83
2023/06/26 00:36:43;;;;;;;14.23;4.72;;;;;;;18.09;100.00;94596.94;5075780;28;20039;-82
2023/06/26 00:39:09;;;;;;;10.43;4.88;;;;;;;17.96;100.00;94597.81;5060086;28;20040;-83
2023/06/26 00:41:34;;;;;;;8.80;4.90;;;;;;;17.80;100.00;94597.47;5075884;28;20465;-83
2023/06/26 00:44:00;;;;;;;8.40;5.30;;;;;;;17.78;100.00;94594.31;5075733;28;20044;-83
2023/06/26 00:46:25;;;;;;;9.48;4.82;;;;;;;17.98;100.00;94597.50;5075899;28;20028;-83
2023/06/26 00:48:52;;;;;;;8.13;4.65;;;;;;;18.04;100.00;94596.28;5075363;28;20028;-83
2023/06/26 00:51:18;;;;;;;9.18;4.95;;;;;;;17.69;100.00;94596.94;5075716;28;20032;-83
2023/06/26 00:53:43;;;;;;;9.88;4.55;;;;;;;17.50;100.00;94599.81;5075755;28;20028;-83
2023/06/26 00:56:09;;;;;;;8.27;5.00;;;;;;;17.44;100.00;94587.81;5076840;28;20024;-82
2023/06/26 00:58:34;;;;;;;8.50;5.10;;;;;;;17.48;100.00;94592.19;5075316;28;20028;-83
2023/06/26 01:01:01;;;;;;;7.18;5.00;;;;;;;17.66;100.00;94590.41;5076755;28;20441;-83
2023/06/26 01:03:26;;;;;;;7.65;5.25;;;;;;;17.78;100.00;94587.16;5082701;28;20043;-83
2023/06/26 01:05:52;;;;;;;8.38;4.90;;;;;;;17.78;100.00;94596.97;5095681;28;20054;-83
2023/06/26 01:08:18;;;;;;;14.80;5.43;;;;;;;17.52;100.00;94593.16;5095239;28;20413;-83
2023/06/26 01:10:45;;;;;;;6.53;4.88;;;;;;;17.43;100.00;94592.34;5095679;28;20027;-83
2023/06/26 01:13:12;;;;;;;7.90;4.90;;;;;;;17.63;100.00;94583.03;5095798;28;20028;-83
2023/06/26 01:15:46;;;;;;;7.53;4.80;;;;;;;17.54;100.00;94584.91;5084090;28;20039;-83
2023/06/26 01:18:11;;;;;;;7.43;4.28;;;;;;;17.40;100.00;94577.03;5078499;28;20024;-83
2023/06/26 01:20:41;;;;;;;10.00;4.82;;;;;;;17.39;100.00;94578.13;5073067;28;20032;-83
2023/06/26 01:23:14;;;;;;;10.18;5.30;;;;;;;17.57;100.00;94579.00;5079418;28;20336;-83
2023/06/26 01:25:56;;;;;;;9.43;4.90;;;;;;;17.50;100.00;94579.44;5092696;28;20078;-83
2023/06/26 01:28:22;;;;;;;7.05;4.80;;;;;;;17.55;100.00;94573.22;5085110;28;20035;-83
2023/06/26 01:30:48;;;;;;;7.75;5.00;;;;;;;17.56;100.00;94573.97;5077145;28;20697;-83
2023/06/26 01:33:14;;;;;;;11.38;5.35;;;;;;;17.54;100.00;94571.66;5090524;28;20028;-83
2023/06/26 01:35:42;;;;;;;8.70;5.63;;;;;;;17.55;100.00;94570.56;5093302;28;20039;-83
2023/06/26 01:38:18;;;;;;;12.52;5.38;;;;;;;17.70;100.00;94572.00;5081712;28;20393;-84
2023/06/26 01:40:44;;;;;;;7.00;4.32;;;;;;;17.77;100.00;94575.00;5094106;28;20020;-83
2023/06/26 01:43:27;;;;;;;14.57;5.38;;;;;;;17.43;100.00;94575.66;5096094;28;20035;-83
2023/06/26 01:46:05;;;;;;;10.00;5.32;;;;;;;17.41;100.00;94570.66;5096087;28;20028;-84
2023/06/26 01:49:03;;;;;;;8.50;5.43;;;;;;;17.27;100.00;94562.81;5078371;28;20035;-84
2023/06/26 01:51:42;;;;;;;14.10;5.00;;;;;;;17.44;100.00;94574.56;5096611;28;20378;-84
2023/06/26 01:54:10;;;;;;;9.88;5.82;;;;;;;16.97;100.00;94565.13;5080251;28;20040;-84
2023/06/26 01:56:38;;;;;;;8.70;5.32;;;;;;;16.96;100.00;94568.88;5058786;28;20433;-84
2023/06/26 01:59:05;;;;;;;7.50;4.78;;;;;;;16.98;100.00;94569.34;5075267;28;20028;-83
2023/06/26 02:01:33;;;;;;;10.68;5.25;;;;;;;17.01;100.00;94573.28;5058387;28;20024;-83
2023/06/26 02:03:59;;;;;;;10.95;5.32;;;;;;;16.91;100.00;94571.63;5075277;28;20029;-84
2023/06/26 02:06:24;;;;;;;15.15;5.53;;;;;;;17.06;100.00;94565.22;5075114;28;20318;-83
2023/06/26 02:08:49;;;;;;;7.30;4.57;;;;;;;17.20;100.00;94573.06;5074839;28;20024;-83
2023/06/26 02:11:15;;;;;;;18.05;6.00;;;;;;;17.12;100.00;94571.94;5058883;28;20017;-83
2023/06/26 02:13:40;;;;;;;8.65;5.28;;;;;;;17.22;100.00;94574.31;5074922;28;20029;-83
2023/06/26 02:16:06;;;;;;;7.20;4.80;;;;;;;17.22;100.00;94568.25;5074957;28;20028;-84
2023/06/26 02:18:31;;;;;;;10.15;4.93;;;;;;;17.05;100.00;94579.53;5074250;28;20098;-83
2023/06/26 02:20:56;;;;;;;12.88;5.28;;;;;;;16.95;100.00;94576.00;5058151;28;20341;-83
2023/06/26 02:23:22;;;;;;;8.07;5.18;;;;;;;16.85;100.00;94576.25;5074774;28;20028;-83
2023/06/26 02:25:47;;;;;;;7.97;4.72;;;;;;;16.75;100.00;94573.88;5074902;28;20029;-83
2023/06/26 02:28:22;;;;;;;10.23;5.45;;;;;;;16.77;100.00;94577.00;5074539;28;20449;-83
2023/06/26 02:30:47;;;;;;;9.77;4.90;;;;;;;16.67;100.00;94578.03;5057854;28;20507;-83
2023/06/26 02:33:13;;;;;;;14.85;4.80;;;;;;;16.61;100.00;94577.34;5074085;28;20028;-83
2023/06/26 02:35:38;;;;;;;10.93;5.88;;;;;;;16.50;100.00;94576.00;5074118;28;20034;-83
2023/06/26 02:38:04;;;;;;;7.65;4.90;;;;;;;16.71;100.00;94581.63;5056833;28;20359;-83
2023/06/26 02:40:29;;;;;;;7.57;4.90;;;;;;;16.79;100.00;94578.25;5074799;28;20082;-82
2023/06/26 02:42:55;;;;;;;7.05;4.70;;;;;;;16.99;100.00;94578.03;5073894;28;20036;-83
2023/06/26 02:45:20;;;;;;;7.68;4.70;;;;;;;16.96;100.00;94576.81;5073593;28;20040;-83
2023/06/26 02:47:46;;;;;;;7.65;4.72;;;;;;;16.99;100.00;94578.88;5072934;28;20044;-83
2023/06/26 02:50:11;;;;;;;9.68;5.00;;;;;;;16.97;100.00;94573.06;5056943;28;20061;-83
2023/06/26 02:52:36;;;;;;;7.00;4.35;;;;;;;17.06;100.00;94581.84;5073602;28;20040;-83
2023/06/26 02:55:03;;;;;;;6.95;4.68;;;;;;;17.14;100.00;94569.75;5073335;28;20037;-83
2023/06/26 02:57:28;;;;;;;12.10;5.22;;;;;;;17.04;100.00;94577.97;5072921;28;20040;-83
2023/06/26 02:59:53;;;;;;;9.32;5.40;;;;;;;17.02;100.00;94578.25;5056738;28;20032;-83
2023/06/26 03:02:19;;;;;;;8.45;4.60;;;;;;;17.20;100.00;94568.56;5073234;28;20131;-83
2023/06/26 03:04:45;;;;;;;9.65;4.68;;;;;;;17.21;100.00;94566.66;5074392;28;20028;-83
2023/06/26 03:07:10;;;;;;;9.48;4.95;;;;;;;17.34;100.00;94568.44;5073843;28;20033;-83
2023/06/26 03:09:36;;;;;;;9.07;5.45;;;;;;;17.32;100.00;94572.50;5074374;28;20085;-83
2023/06/26 03:12:01;;;;;;;8.25;4.88;;;;;;;17.40;100.00;94570.97;5083395;28;20032;-83
2023/06/26 03:14:27;;;;;;;6.35;4.57;;;;;;;17.55;100.00;94575.88;5076952;28;20032;-83
2023/06/26 03:16:52;;;;;;;8.48;4.70;;;;;;;17.57;100.00;94575.53;5076226;28;20127;-83
2023/06/26 03:19:18;;;;;;;7.63;4.47;;;;;;;17.66;100.00;94576.38;5090878;28;20122;-83
2023/06/26 03:21:44;;;;;;;10.13;5.18;;;;;;;17.57;100.00;94580.84;5069705;28;20032;-83
2023/06/26 03:24:09;;;;;;;7.13;4.15;;;;;;;17.65;100.00;94580.09;5074526;28;20036;-83
2023/06/26 03:26:35;;;;;;;7.70;4.32;;;;;;;17.55;100.00;94570.56;5074021;28;20032;-84
2023/06/26 03:29:00;;;;;;;7.80;4.53;;;;;;;17.64;100.00;94578.53;5073503;28;20056;-84
2023/06/26 03:31:25;;;;;;;7.80;4.00;;;;;;;17.87;100.00;94578.47;5073607;28;20032;-83
2023/06/26 03:33:51;;;;;;;9.68;4.22;;;;;;;17.65;100.00;94574.81;5073890;28;20039;-83
2023/06/26 03:36:16;;;;;;;11.05;4.45;;;;;;;17.77;100.00;94577.66;5057465;28;20040;-84
2023/06/26 03:38:42;;;;;;;8.73;4.93;;;;;;;17.81;100.00;94575.19;5073642;28;20101;-83
2023/06/26 03:41:07;;;;;;;8.30;4.47;;;;;;;17.69;100.00;94573.09;5073874;28;20036;-83
2023/06/26 03:43:32;;;;;;;7.90;4.53;;;;;;;17.63;100.00;94572.44;5073876;28;20028;-83
2023/06/26 03:45:58;;;;;;;7.90;4.65;;;;;;;17.62;100.00;94570.88;5073748;28;20039;-84
2023/06/26 03:48:23;;;;;;;7.55;4.47;;;;;;;17.49;100.00;94577.06;5073302;28;20039;-83
2023/06/26 03:50:49;;;;;;;10.27;4.75;;;;;;;17.52;100.00;94579.91;5078938;28;20024;-84
2023/06/26 03:53:14;;;;;;;9.30;4.60;;;;;;;17.52;100.00;94579.13;5077111;28;20028;-84
2023/06/26 03:55:39;;;;;;;6.82;4.20;;;;;;;17.48;100.00;94580.81;5093784;28;20356;-84
2023/06/26 03:58:05;;;;;;;13.68;4.82;;;;;;;17.52;100.00;94579.91;5093363;28;20024;-83
2023/06/26 04:00:30;;;;;;;8.63;4.10;;;;;;;17.54;100.00;94579.59;5093389;28;20036;-83
2023/06/26 04:02:57;;;;;;;10.50;4.97;;;;;;;17.49;100.00;94582.38;5076974;28;20441;-83
2023/06/26 04:05:25;;;;;;;8.82;4.55;;;;;;;17.55;100.00;94580.38;5077104;28;20028;-83
2023/06/26 04:07:51;;;;;;;6.22;4.20;;;;;;;17.32;100.00;94577.81;5093415;28;20459;-83
2023/06/26 04:10:17;;;;;;;6.03;4.32;;;;;;;17.43;100.00;94587.03;5077031;28;20036;-83
2023/06/26 04:12:42;;;;;;;7.47;4.18;;;;;;;17.21;100.00;94582.56;5093890;28;20094;-84
2023/06/26 04:15:08;;;;;;;9.57;4.30;;;;;;;17.15;100.00;94589.88;5093726;28;20337;-83
2023/06/26 04:17:33;;;;;;;9.00;4.47;;;;;;;17.24;100.00;94582.75;5093409;28;20038;-83
2023/06/26 04:19:59;;;;;;;7.20;4.35;;;;;;;17.44;100.00;94585.97;5094584;28;20038;-84
2023/06/26 04:22:25;;;;;;;5.90;4.32;;;;;;;17.55;100.00;94585.66;5093282;28;20440;-84
2023/06/26 04:24:51;;;;;;;7.28;4.65;;;;;;;17.59;100.00;94586.63;5093348;28;20028;-84
2023/06/26 04:27:17;;;;;;;7.28;4.68;;;;;;;17.62;100.00;94591.31;5076450;28;20718;-84
2023/06/26 04:29:43;;;;;;;7.82;4.55;;;;;;;17.81;100.00;94593.72;5092670;28;20355;-83
2023/06/26 04:32:08;;;;;;;7.25;4.20;;;;;;;17.82;100.00;94592.63;5092432;28;20035;-83
2023/06/26 04:34:35;;;;;;;7.43;5.10;;;;;;;17.82;100.00;94595.28;5075792;28;20028;-83
2023/06/26 04:37:03;;;;;;;7.70;4.35;;;;;;;17.73;100.00;94597.13;5091947;28;20432;-83
2023/06/26 04:39:30;;;;;;;6.40;4.30;;;;;;;17.36;100.00;94592.78;5092255;28;20028;-83
2023/06/26 04:41:55;;;;;;;8.23;5.03;;;;;;;17.30;100.00;94596.63;5075757;28;20036;-83
2023/06/26 04:44:21;;;;;;;8.90;4.45;;;;;;;17.40;100.00;94602.75;5092325;28;20032;-83
2023/06/26 04:46:46;;;;;;;13.02;4.82;;;;;;;17.64;100.00;94589.91;5091926;28;20047;-83
2023/06/26 04:49:11;;;;;;;8.55;4.47;;;;;;;17.83;100.00;94604.78;5093589;28;20028;-83
2023/06/26 04:51:42;;;;;;;8.95;4.47;;;;;;;17.93;100.00;94604.53;5092419;28;20032;-84
2023/06/26 04:54:08;;;;;;;6.78;4.43;;;;;;;17.83;100.00;94601.34;5091414;28;20040;-83
2023/06/26 04:56:35;;;;;;;6.63;4.07;;;;;;;17.95;100.00;94599.69;5074122;28;20111;-83
2023/06/26 04:59:13;;;;;;;7.55;4.22;;;;;;;18.11;100.00;94596.63;5076612;28;20040;-86
2023/06/26 05:01:47;;;;;;;6.72;4.38;;;;;;;17.98;100.00;94597.50;5075328;28;20032;-86
2023/06/26 05:04:13;;;;;;;6.82;4.57;;;;;;;17.84;100.00;94598.41;5093448;28;20044;-86
2023/06/26 05:06:38;;;;;;;7.13;4.45;;;;;;;18.03;100.00;94597.38;5078664;28;20102;-86
2023/06/26 05:09:04;;;;;;;5.68;4.35;;;;;;;18.14;100.00;94590.69;5078771;28;20122;-86
2023/06/26 05:11:29;;;;;;;9.50;4.32;;;;;;;18.27;100.00;94602.25;5097047;28;20035;-82
2023/06/26 05:13:54;;;;;;;6.45;4.50;;;;;;;17.91;100.00;94601.38;5072823;28;20043;-83
2023/06/26 05:16:20;;;;;;;7.68;4.20;;;;;;;17.74;100.00;94606.63;5065837;28;20126;-83
2023/06/26 05:18:45;;;;;;;6.80;4.80;;;;;;;17.85;100.00;94605.25;5059497;28;20330;-83
2023/06/26 05:21:11;;;;;;;10.35;5.32;;;;;;;17.79;100.00;94601.22;5076372;28;20042;-83
2023/06/26 05:23:37;;;;;;;10.77;5.10;;;;;;;17.85;100.00;94604.47;5074224;28;20045;-83
2023/06/26 05:26:03;;;;;;;8.02;4.65;;;;;;;18.24;100.00;94597.56;5091960;28;20428;-82
2023/06/26 05:28:30;;;;;;;7.35;4.70;;;;;;;18.13;100.00;94599.75;5060446;28;20345;-82
2023/06/26 05:30:56;;;;;;;8.57;4.95;;;;;;;18.35;100.00;94603.34;5096674;28;20453;-83
2023/06/26 05:33:23;;;;;;;7.57;4.90;;;;;;;18.53;100.00;94601.50;5079701;28;20031;-82
2023/06/26 05:35:49;;;;;;;5.97;4.47;;;;;;;18.78;100.00;94601.81;5079590;28;20119;-82
2023/06/26 05:38:14;;;;;;;8.75;5.13;;;;;;;18.88;100.00;94596.19;5079021;28;20513;-83
2023/06/26 05:40:40;;;;;;;9.55;5.38;;;;;;;18.89;100.00;94602.25;5095126;28;20019;-83
2023/06/26 05:43:07;;;;;;;9.82;4.68;;;;;;;18.93;100.00;94600.53;5095717;28;20109;-83
2023/06/26 05:45:32;;;;;;;8.18;4.80;;;;;;;19.30;100.00;94605.50;5096213;28;20313;-83
2023/06/26 05:47:58;;;;;;;12.13;4.68;;;;;;;19.45;100.00;94604.19;5096045;28;20031;-82
2023/06/26 05:50:24;;;;;;;8.23;4.25;;;;;;;19.69;100.00;94616.94;5096162;28;20387;-82
2023/06/26 05:52:50;;;;;;;6.80;4.57;;;;;;;19.77;100.00;94612.66;5095944;28;20550;-82
2023/06/26 05:55:16;;;;;;;5.82;4.25;;;;;;;19.75;100.00;94622.84;5097563;28;20401;-83
2023/06/26 05:57:41;;;;;;;7.25;4.60;;;;;;;19.93;100.00;94618.25;5095791;28;20047;-82
2023/06/26 06:00:12;;;;;;;9.63;4.78;;;;;;;19.92;100.00;94620.13;5079490;28;20093;-81
2023/06/26 06:02:48;;;;;;;;;;;;;;;;;;;;;
2023/06/26 06:05:16;;;;;;;7.07;4.22;;;;;;;20.48;100.00;94615.75;5096729;28;20514;-90
2023/06/26 06:07:54;;;;;;;;;;;;;;;;;;;;;
2023/06/26 06:10:19;;;;;;;8.77;5.05;;;;;;;21.05;100.00;94609.03;5096326;28;20023;-90
2023/06/26 06:12:47;;;;;;;35.28;9.35;;;;;;;21.22;100.00;94614.53;5079713;28;20028;-93
2023/06/26 06:15:13;;;;;;;48.75;11.63;;;;;;;21.10;100.00;94621.38;5081303;28;20031;-94
2023/06/26 06:17:48;;;;;;;;;;;;;;;;;;;;;
2023/06/26 06:20:16;;;;;;;67.00;15.25;;;;;;;21.31;100.00;94623.97;5097404;28;20020;-92
2023/06/26 06:22:54;;;;;;;;;;;;;;;;;;;;;
2023/06/26 06:25:22;;;;;;;15.75;6.20;;;;;;;21.31;100.00;94618.66;5097248;28;20047;-92
2023/06/26 06:27:48;;;;;;;13.40;4.72;;;;;;;21.27;100.00;94617.75;5080512;28;20028;-92
2023/06/26 06:30:26;;;;;;;40.75;11.15;;;;;;;21.47;100.00;94615.34;5080392;28;20493;-94
2023/06/26 06:32:57;;;;;;;8.50;4.32;;;;;;;21.55;100.00;94619.81;5081708;28;20031;-92
2023/06/26 06:35:28;;;;;;;111.75;26.10;;;;;;;21.67;100.00;94624.41;5080510;28;20408;-92
2023/06/26 06:37:53;;;;;;;198.55;37.50;;;;;;;21.74;100.00;94611.31;5081052;28;20020;-92
2023/06/26 06:40:29;;;;;;;;;;;;;;;;;;;;;
2023/06/26 06:42:57;;;;;;;31.15;7.80;;;;;;;21.72;100.00;94618.09;5096699;28;20471;-93
2023/06/26 06:45:30;;;;;;;347.25;70.53;;;;;;;21.85;100.00;94618.84;5096951;28;20451;-93
2023/06/26 06:48:02;;;;;;;90.63;20.70;;;;;;;21.63;100.00;94614.69;5080915;28;20073;-92
2023/06/26 06:50:28;;;;;;;95.85;20.83;;;;;;;21.91;100.00;94620.19;5080864;28;20040;-90
2023/06/26 06:53:00;;;;;;;384.35;76.78;;;;;;;22.06;100.00;94624.06;5096587;28;20024;-93
2023/06/26 06:55:33;;;;;;;42.87;11.90;;;;;;;22.07;100.00;94628.28;5080981;28;20028;-93
2023/06/26 06:58:03;;;;;;;12.30;5.57;;;;;;;22.12;100.00;94625.41;5080600;28;20270;-93
2023/06/26 07:00:32;;;;;;;13.60;5.95;;;;;;;22.25;100.00;94628.09;5080243;28;20144;-93
2023/06/26 07:03:00;;;;;;;11.23;5.28;;;;;;;22.33;100.00;94629.06;5080206;28;20069;-91
2023/06/26 07:05:25;;;;;;;11.55;5.60;;;;;;;22.34;100.00;94630.63;5095983;28;20095;-92
2023/06/26 07:07:53;;;;;;;35.50;9.38;;;;;;;22.28;100.00;94627.41;5096458;28;20063;-91
2023/06/26 07:10:18;;;;;;;23.50;4.63;;;;;;;22.40;100.00;94630.06;5096337;28;20069;-92
2023/06/26 07:12:49;;;;;;;8.93;4.65;;;;;;;22.62;100.00;94630.69;5080251;28;20028;-94
2023/06/26 07:15:36;;;;;;;12.48;5.95;;;;;;;22.71;100.00;94631.34;5080459;28;20028;-92
2023/06/26 07:18:14;;;;;;;;;;;;;;;;;;;;;
2023/06/26 07:20:43;;;;;;;7.57;3.78;;;;;;;22.91;100.00;94617.38;5096009;28;20016;-92
2023/06/26 07:23:08;;;;;;;7.57;4.30;;;;;;;23.08;100.00;94616.28;5096263;28;20123;-91
2023/06/26 07:25:37;;;;;;;14.40;4.88;;;;;;;23.04;100.00;94618.88;5096785;28;20134;-92
2023/06/26 07:28:02;;;;;;;14.80;5.22;;;;;;;23.23;100.00;94625.47;5096136;28;20024;-91
2023/06/26 07:30:28;;;;;;;13.95;5.38;;;;;;;23.24;100.00;94622.47;5096663;28;20462;-91
2023/06/26 07:32:56;;;;;;;9.93;4.03;;;;;;;23.39;100.00;94623.63;5079403;28;20020;-91
2023/06/26 07:35:32;;;;;;;;;;;;;;;;;;;;;
2023/06/26 07:37:59;;;;;;;19.42;6.97;;;;;;;23.52;100.00;94623.56;5075556;28;20376;-92
2023/06/26 07:40:26;;;;;;;8.48;4.63;;;;;;;23.57;100.00;94624.06;5075871;28;20025;-91
2023/06/26 07:42:53;;;;;;;6.70;3.92;;;;;;;23.60;100.00;94619.94;5075711;28;20033;-91
2023/06/26 07:45:21;;;;;;;9.57;4.30;;;;;;;23.70;100.00;94618.66;5075773;28;20341;-92
2023/06/26 07:47:46;;;;;;;9.43;4.05;;;;;;;23.82;100.00;94612.41;5075558;28;20066;-92
2023/06/26 07:50:22;;;;;;;4.85;3.40;;;;;;;23.90;100.00;94614.16;5075572;28;20416;-92
2023/06/26 07:52:57;;;;;;;8.38;4.47;;;;;;;23.97;100.00;94618.91;5080194;28;20050;-93
2023/06/26 07:55:26;;;;;;;5.70;3.88;;;;;;;24.05;100.00;94617.94;5080808;28;20027;-92
2023/06/26 07:57:52;;;;;;;5.32;3.67;;;;;;;24.08;100.00;94622.59;5079675;28;20035;-92
2023/06/26 08:00:17;;;;;;;5.70;3.88;;;;;;;24.13;100.00;94619.69;5079327;28;20122;-92
2023/06/26 08:02:43;;;;;;;6.28;4.30;;;;;;;24.23;100.00;94625.59;5078652;28;20122;-93
2023/06/26 08:05:18;;;;;;;;;;;;;;;;;;;;;
2023/06/26 08:07:44;;;;;;;5.32;3.63;;;;;;;24.29;100.00;94624.97;5095817;28;20024;-91
2023/06/26 08:10:10;;;;;;;6.20;4.30;;;;;;;24.40;98.52;94619.09;5079008;28;20107;-92
2023/06/26 08:12:46;;;;;;;;;;;;;;;;;;;;;
2023/06/26 08:15:12;;;;;;;5.72;4.07;;;;;;;24.50;99.55;94629.25;5095197;28;20348;-92
2023/06/26 08:17:40;;;;;;;8.23;4.38;;;;;;;24.60;100.00;94622.56;5078538;28;20148;-92
2023/06/26 08:20:09;;;;;;;9.30;3.95;;;;;;;24.69;100.00;94625.81;5079381;28;20043;-92
2023/06/26 08:22:37;;;;;;;12.55;4.70;;;;;;;24.75;100.00;94618.28;5079168;28;20085;-92
2023/06/26 08:25:05;;;;;;;9.77;4.85;;;;;;;24.89;100.00;94625.06;5095186;28;20050;-92
2023/06/26 08:27:33;;;;;;;9.68;4.38;;;;;;;24.88;93.04;94626.97;5078287;28;20085;-95
2023/06/26 08:29:58;;;;;;;6.95;4.50;;;;;;;24.88;90.16;94621.63;5078508;28;20028;-92
2023/06/26 08:32:29;;;;;;;9.82;5.72;;;;;;;24.69;79.64;94623.16;5079260;28;20433;-91
2023/06/26 08:38:38;;;;;;;;;;;;;;;;;;;;;
2023/06/26 08:41:13;;;;;;;;;;;;;;;;;;;;;
2023/06/26 08:43:41;;;;;;;10.05;5.30;;;;;;;24.91;81.88;94610.19;5098759;28;20028;-91
2023/06/26 08:46:16;;;;;;;14.00;4.93;;;;;;;25.01;85.01;94610.75;5098546;28;20081;-93
2023/06/26 08:48:50;;;;;;;12.63;5.18;;;;;;;25.14;94.96;94614.84;5083415;28;20082;-93
2023/06/26 08:51:28;;;;;;;;;;;;;;;;;;;;;
2023/06/26 08:54:10;;;;;;;8.70;4.88;;;;;;;25.29;81.33;94615.09;5098793;28;20022;-90
2023/06/26 08:56:46;;;;;;;10.30;4.93;;;;;;;25.14;84.53;94617.53;5082190;28;20118;-92
2023/06/26 08:59:14;;;;;;;14.68;5.82;;;;;;;25.38;80.05;94616.41;5082986;28;20056;-93
2023/06/26 09:01:40;;;;;;;6.07;4.88;;;;;;;25.28;74.90;94617.00;5082319;28;20114;-93
2023/06/26 09:04:06;;;;;;;6.60;4.90;;;;;;;25.41;82.46;94620.28;5083752;28;20038;-93
2023/06/26 09:06:33;;;;;;;5.97;4.80;;;;;;;25.36;71.68;94621.38;5081712;28;20031;-94
2023/06/26 09:08:58;;;;;;;6.78;5.03;;;;;;;25.23;69.01;94610.00;5081641;28;20437;-94
2023/06/26 09:11:23;;;;;;;10.18;4.55;;;;;;;25.20;73.31;94613.41;5081643;28;20032;-88
2023/06/26 09:13:58;;;;;;;6.53;5.00;;;;;;;25.22;70.59;94607.69;5082303;28;20074;-94
2023/06/26 09:16:32;;;;;;;8.15;5.25;;;;;;;25.38;72.58;94605.69;5083683;28;20416;-95
2023/06/26 09:18:58;;;;;;;7.28;4.72;;;;;;;25.54;81.98;94613.66;5083174;28;20114;-94
2023/06/26 09:21:24;;;;;;;7.13;4.80;;;;;;;25.77;77.28;94607.50;5078343;28;20115;-83
2023/06/26 09:23:50;;;;;;;6.85;4.95;;;;;;;25.75;73.83;94607.09;5085708;28;20031;-83
2023/06/26 09:26:17;;;;;;;8.40;5.05;;;;;;;25.80;70.96;94609.44;5072219;28;20032;-83
2023/06/26 09:28:43;;;;;;;8.50;4.82;;;;;;;25.88;69.73;94607.66;5059235;28;20035;-83
2023/06/26 09:31:10;;;;;;;9.07;5.22;;;;;;;26.02;71.31;94604.44;5076369;28;20016;-84
2023/06/26 09:33:37;;;;;;;8.18;5.15;;;;;;;26.07;67.59;94612.16;5076336;28;20029;-83
2023/06/26 09:36:19;;;;;;;7.40;5.10;;;;;;;25.98;74.52;94604.38;5076383;28;20111;-83
2023/06/26 09:38:45;;;;;;;7.03;5.20;;;;;;;26.17;68.60;94604.63;5075846;28;20025;-83
2023/06/26 09:41:10;;;;;;;8.85;5.32;;;;;;;26.31;71.84;94604.88;5096322;28;20028;-83
2023/06/26 09:43:45;;;;;;;6.93;4.78;;;;;;;26.34;62.76;94600.69;5096345;28;20038;-82
2023/06/26 09:46:16;;;;;;;6.60;4.93;;;;;;;26.20;73.67;94598.56;5096698;28;20024;-86
2023/06/26 09:48:41;;;;;;;9.07;5.35;;;;;;;26.07;71.63;94600.66;5095175;28;20020;-83
2023/06/26 09:51:07;;;;;;;5.95;4.43;;;;;;;26.11;73.85;94599.59;5095999;28;20023;-83
2023/06/26 09:53:35;;;;;;;6.38;4.60;;;;;;;26.34;79.62;94598.75;5079387;28;20089;-83
2023/06/26 09:56:05;;;;;;;6.03;4.65;;;;;;;26.56;76.19;94599.06;5096689;28;20027;-83
2023/06/26 09:58:31;;;;;;;7.93;5.22;;;;;;;26.61;68.65;94601.41;5095951;28;20024;-83
2023/06/26 10:00:56;;;;;;;7.57;4.65;;;;;;;26.46;62.21;94597.75;5096148;28;20047;-83
2023/06/26 10:03:22;;;;;;;7.88;5.20;;;;;;;26.34;63.47;94598.75;5096002;28;20028;-84
2023/06/26 10:05:48;;;;;;;9.32;5.15;;;;;;;25.98;63.62;94593.63;5078536;28;20023;-85
2023/06/26 10:08:14;;;;;;;7.93;5.50;;;;;;;26.32;63.82;94590.28;5094536;28;20467;-85
2023/06/26 10:10:40;;;;;;;7.05;4.75;;;;;;;26.44;67.64;94596.59;5077980;28;20020;-85
2023/06/26 10:13:17;;;;;;;6.97;4.88;;;;;;;26.72;66.59;94598.84;5094460;28;20463;-86
2023/06/26 10:15:47;;;;;;;6.88;4.75;;;;;;;26.66;63.86;94598.38;5094435;28;20053;-84
2023/06/26 10:18:15;;;;;;;7.28;4.82;;;;;;;26.70;63.09;94586.94;5094138;28;20039;-85
2023/06/26 10:20:41;;;;;;;7.50;4.85;;;;;;;26.86;68.30;94590.22;5094751;28;20028;-85
2023/06/26 10:23:07;;;;;;;7.10;4.70;;;;;;;26.86;62.82;94586.72;5091040;28;20218;-84
2023/06/26 10:25:34;;;;;;;7.03;4.82;;;;;;;26.86;65.04;94589.41;5074218;28;20121;-86
2023/06/26 10:28:03;;;;;;;11.00;5.22;;;;;;;27.14;65.11;94580.91;5073531;28;20036;-85
2023/06/26 10:30:33;;;;;;;6.90;4.80;;;;;;;26.94;64.32;94585.69;5073886;28;20449;-85
2023/06/26 10:33:00;;;;;;;7.22;4.80;;;;;;;26.95;68.89;94582.63;5073946;28;20103;-86
2023/06/26 10:35:27;;;;;;;7.63;4.72;;;;;;;27.17;72.48;94582.84;5074062;28;20028;-86
2023/06/26 10:38:00;;;;;;;10.95;5.13;;;;;;;27.31;69.32;94584.91;5057065;28;20024;-86
2023/06/26 10:40:27;;;;;;;14.32;5.82;;;;;;;26.82;66.92;94589.34;5057350;28;20437;-85
2023/06/26 10:43:08;;;;;;;8.85;5.10;;;;;;;27.14;71.36;94593.56;5073962;28;20032;-86
2023/06/26 10:45:35;;;;;;;9.02;5.15;;;;;;;27.28;72.67;94588.31;5080646;28;20058;-86
2023/06/26 10:48:01;;;;;;;7.80;5.30;;;;;;;27.24;68.63;94585.59;5081879;28;20348;-86
2023/06/26 10:50:37;;;;;;;6.65;4.90;;;;;;;27.52;67.68;94592.41;5093534;28;20028;-86
2023/06/26 10:53:21;;;;;;;8.55;4.57;;;;;;;27.61;65.60;94589.41;5094153;28;20132;-86
2023/06/26 10:56:08;;;;;;;8.18;4.80;;;;;;;27.75;67.45;94586.06;5094288;28;20043;-86
2023/06/26 10:58:47;;;;;;;5.80;4.65;;;;;;;27.80;64.73;94585.72;5094400;28;20024;-86
2023/06/26 11:01:15;;;;;;;6.40;4.75;;;;;;;27.80;64.24;94580.34;5093027;28;20020;-85
2023/06/26 11:03:49;;;;;;;7.70;5.22;;;;;;;27.81;61.58;94581.13;5092726;28;20031;-86
2023/06/26 11:06:21;;;;;;;8.05;5.05;;;;;;;27.88;64.90;94575.78;5078334;28;20375;-86
2023/06/26 11:08:52;;;;;;;6.28;4.93;;;;;;;28.16;69.53;94576.34;5077406;28;20032;-86
2023/06/26 11:11:18;;;;;;;7.05;5.15;;;;;;;28.29;67.07;94580.31;5078316;28;20053;-86
2023/06/26 11:13:45;;;;;;;6.95;4.65;;;;;;;28.38;64.95;94588.03;5078133;28;20032;-86
2023/06/26 11:16:11;;;;;;;9.32;4.38;;;;;;;28.44;60.24;94581.13;5077873;28;20053;-86
2023/06/26 11:18:37;;;;;;;6.25;4.80;;;;;;;28.44;60.28;94575.00;5094217;28;20034;-86
2023/06/26 11:21:11;;;;;;;7.80;4.70;;;;;;;28.42;60.18;94580.00;5077935;28;20024;-87
2023/06/26 11:23:37;;;;;;;11.85;4.90;;;;;;;28.22;62.64;94577.56;5074818;28;20047;-87
2023/06/26 11:26:21;;;;;;;7.45;4.65;;;;;;;28.20;62.72;94575.25;5058326;28;20025;-87
2023/06/26 11:28:51;;;;;;;7.00;4.90;;;;;;;28.29;61.34;94572.22;5057987;28;20032;-86
2023/06/26 11:31:31;;;;;;;8.18;4.88;;;;;;;28.48;57.84;94570.38;5058144;28;20027;-86
2023/06/26 11:33:58;;;;;;;7.25;4.97;;;;;;;28.49;61.49;94575.41;5079200;28;20031;-87
2023/06/26 11:36:25;;;;;;;7.85;4.50;;;;;;;28.64;61.44;94575.47;5077995;28;20072;-86
2023/06/26 11:39:10;;;;;;;6.55;4.32;;;;;;;28.69;59.48;94572.38;5078353;28;20073;-88
2023/06/26 11:41:37;;;;;;;6.55;4.35;;;;;;;28.87;56.90;94574.41;5079858;28;20020;-88
2023/06/26 11:44:05;;;;;;;8.23;4.68;;;;;;;28.87;56.17;94577.09;5094145;28;20024;-88
2023/06/26 11:46:31;;;;;;;7.72;4.53;;;;;;;28.79;56.76;94571.66;5094317;28;20032;-88
2023/06/26 11:48:57;;;;;;;7.18;4.72;;;;;;;28.88;57.71;94571.34;5077162;28;20069;-88